| time (UTC) | temp F | wind direction | speed knots | gust knots | rain 1hr in | rain 24hr in | rain mn in | humidity % | barometer mb |
| 20260510204542 | 77 | 238 | 1.7 | 1.7 | 0.00 | 0.00 | 0.00 | 46 | 1013.4 |
| 20260510204039 | 79 | 273 | 2.6 | 5.2 | 0.00 | 0.00 | 0.00 | 42 | 1013.6 |
| 20260510203536 | 80 | 244 | 2.6 | 4.3 | 0.00 | 0.00 | 0.00 | 41 | 1013.6 |
| 20260510203033 | 78 | 336 | 0.0 | 2.6 | 0.00 | 0.00 | 0.00 | 47 | 1013.5 |
| 20260510202531 | 77 | 247 | 1.7 | 1.7 | 0.00 | 0.00 | 0.00 | 49 | 1013.6 |
| 20260510202028 | 76 | 226 | 0.0 | 1.7 | 0.00 | 0.00 | 0.00 | 49 | 1013.5 |
| 20260510201526 | 76 | 205 | 0.0 | 2.6 | 0.00 | 0.00 | 0.00 | 50 | 1013.4 |
| 20260510201022 | 75 | 216 | 0.0 | 1.7 | 0.00 | 0.00 | 0.00 | 49 | 1013.4 |
| 20260510200518 | 75 | 235 | 0.0 | 2.6 | 0.00 | 0.00 | 0.00 | 50 | 1013.7 |
| 20260510200016 | 75 | 237 | 0.9 | 2.6 | 0.00 | 0.00 | 0.00 | 50 | 1013.8 |
| 20260510195513 | 75 | 266 | 2.6 | 5.2 | 0.00 | 0.00 | 0.00 | 49 | 1014.0 |
| 20260510195008 | 75 | 269 | 1.7 | 4.3 | 0.00 | 0.00 | 0.00 | 50 | 1014.0 |
| 20260510194504 | 75 | 286 | 2.6 | 2.6 | 0.00 | 0.00 | 0.00 | 53 | 1013.9 |
| 20260510194001 | 76 | 232 | 3.5 | 3.5 | 0.00 | 0.00 | 0.00 | 50 | 1014.1 |
| 20260510193455 | 76 | 234 | 2.6 | 2.6 | 0.00 | 0.00 | 0.00 | 48 | 1014.0 |
| 20260510192951 | 77 | 249 | 3.5 | 4.3 | 0.00 | 0.00 | 0.00 | 46 | 1013.9 |
| 20260510192446 | 77 | 264 | 2.6 | 3.5 | 0.00 | 0.00 | 0.00 | 46 | 1014.0 |
| 20260510191942 | 77 | 228 | 1.7 | 4.3 | 0.00 | 0.00 | 0.00 | 47 | 1014.0 |
| 20260510191438 | 77 | 185 | 0.9 | 1.7 | 0.00 | 0.00 | 0.00 | 49 | 1014.1 |
| 20260510190936 | 77 | 268 | 3.5 | 4.3 | 0.00 | 0.00 | 0.00 | 45 | 1014.0 |
| 20260510190433 | 77 | 240 | 0.0 | 2.6 | 0.00 | 0.00 | 0.00 | 46 | 1014.0 |
| 20260510185929 | 77 | 194 | 1.7 | 3.5 | 0.00 | 0.00 | 0.00 | 45 | 1013.9 |
| 20260510185427 | 77 | 206 | 2.6 | 3.5 | 0.00 | 0.00 | 0.00 | 45 | 1013.9 |
| 20260510184924 | 77 | 286 | 0.9 | 4.3 | 0.00 | 0.00 | 0.00 | 44 | 1014.1 |
| 20260510184421 | 77 | 232 | 0.9 | 2.6 | 0.00 | 0.00 | 0.00 | 45 | 1014.0 |
| 20260510183920 | 77 | 233 | 2.6 | 3.5 | 0.00 | 0.00 | 0.00 | 44 | 1014.0 |
| 20260510183418 | 77 | 214 | 1.7 | 6.1 | 0.00 | 0.00 | 0.00 | 44 | 1014.0 |
| 20260510182913 | 78 | 203 | 1.7 | 2.6 | 0.00 | 0.00 | 0.00 | 45 | 1013.8 |
| 20260510182409 | 78 | 247 | 2.6 | 4.3 | 0.00 | 0.00 | 0.00 | 43 | 1013.9 |
| 20260510181905 | 78 | 267 | 3.5 | 4.3 | 0.00 | 0.00 | 0.00 | 42 | 1014.1 |
| 20260510181403 | 79 | 232 | 2.6 | 5.2 | 0.00 | 0.00 | 0.00 | 41 | 1014.0 |
| 20260510180859 | 79 | 259 | 2.6 | 5.2 | 0.00 | 0.00 | 0.00 | 41 | 1014.0 |
| 20260510180356 | 79 | 287 | 3.5 | 5.2 | 0.00 | 0.00 | 0.00 | 41 | 1013.9 |
| 20260510175853 | 79 | 271 | 3.5 | 6.1 | 0.00 | 0.00 | 0.00 | 39 | 1014.1 |
| 20260510175349 | 79 | 161 | 1.7 | 3.5 | 0.00 | 0.00 | 0.00 | 41 | 1014.0 |
| 20260510174845 | 79 | 253 | 3.5 | 6.1 | 0.00 | 0.00 | 0.00 | 41 | 1014.0 |
| 20260510174343 | 78 | 250 | 2.6 | 6.1 | 0.00 | 0.00 | 0.00 | 42 | 1013.9 |
| 20260510173839 | 78 | 223 | 2.6 | 7.0 | 0.00 | 0.00 | 0.00 | 42 | 1014.2 |
| 20260510173335 | 78 | 259 | 2.6 | 4.3 | 0.00 | 0.00 | 0.00 | 43 | 1014.0 |
| 20260510172831 | 77 | 233 | 1.7 | 2.6 | 0.00 | 0.00 | 0.00 | 45 | 1014.1 |
| 20260510172327 | 77 | 249 | 1.7 | 4.3 | 0.00 | 0.00 | 0.00 | 45 | 1014.1 |
| 20260510171823 | 78 | 245 | 3.5 | 3.5 | 0.00 | 0.00 | 0.00 | 44 | 1014.1 |
| 20260510171321 | 78 | 220 | 1.7 | 2.6 | 0.00 | 0.00 | 0.00 | 43 | 1014.2 |
| 20260510170818 | 77 | 234 | 4.3 | 4.3 | 0.00 | 0.00 | 0.00 | 44 | 1014.0 |
| 20260510170314 | 76 | 262 | 1.7 | 3.5 | 0.00 | 0.00 | 0.00 | 45 | 1014.4 |
| 20260510165809 | 76 | 242 | 3.5 | 6.1 | 0.00 | 0.00 | 0.00 | 44 | 1014.4 |
| 20260510165307 | 76 | 200 | 0.9 | 2.6 | 0.00 | 0.00 | 0.00 | 46 | 1014.3 |
| 20260510164803 | 76 | 191 | 1.7 | 5.2 | 0.00 | 0.00 | 0.00 | 48 | 1014.4 |
| 20260510164300 | 76 | 216 | 1.7 | 2.6 | 0.00 | 0.00 | 0.00 | 48 | 1014.3 |
| 20260510163755 | 76 | 271 | 5.2 | 6.1 | 0.00 | 0.00 | 0.00 | 46 | 1014.4 |
| 20260510163251 | 76 | 275 | 0.9 | 2.6 | 0.00 | 0.00 | 0.00 | 51 | 1014.3 |
| 20260510162750 | 75 | 95 | 1.7 | 3.5 | 0.00 | 0.00 | 0.00 | 48 | 1014.3 |
| 20260510162248 | 74 | 277 | 3.5 | 4.3 | 0.00 | 0.00 | 0.00 | 50 | 1014.4 |
| 20260510161744 | 75 | 246 | 0.0 | 2.6 | 0.00 | 0.00 | 0.00 | 49 | 1014.2 |
| 20260510161240 | 75 | 27 | 1.7 | 2.6 | 0.00 | 0.00 | 0.00 | 49 | 1014.2 |
| 20260510160737 | 74 | 211 | 0.9 | 2.6 | 0.00 | 0.00 | 0.00 | 50 | 1014.2 |
| 20260510160233 | 75 | 196 | 1.7 | 2.6 | 0.00 | 0.00 | 0.00 | 52 | 1014.3 |
| 20260510155729 | 75 | 266 | 0.0 | 2.6 | 0.00 | 0.00 | 0.00 | 50 | 1014.5 |
| 20260510155225 | 74 | 173 | 0.9 | 1.7 | 0.00 | 0.00 | 0.00 | 54 | 1014.5 |
| 20260510154721 | 74 | 304 | 1.7 | 3.5 | 0.00 | 0.00 | 0.00 | 51 | 1014.4 |
| 20260510154217 | 73 | 267 | 0.9 | 2.6 | 0.00 | 0.00 | 0.00 | 54 | 1014.6 |
| 20260510153712 | 73 | 296 | 1.7 | 4.3 | 0.00 | 0.00 | 0.00 | 54 | 1014.7 |
| 20260510153208 | 73 | 291 | 2.6 | 3.5 | 0.00 | 0.00 | 0.00 | 54 | 1014.6 |
| 20260510152705 | 73 | 252 | 0.9 | 1.7 | 0.00 | 0.00 | 0.00 | 58 | 1014.6 |
| 20260510152201 | 73 | 0 | 0.9 | 2.6 | 0.00 | 0.00 | 0.00 | 57 | 1014.5 |
| 20260510151658 | 71 | 319 | 1.7 | 4.3 | 0.00 | 0.00 | 0.00 | 60 | 1014.7 |
| 20260510151156 | 72 | 301 | 2.6 | 2.6 | 0.00 | 0.00 | 0.00 | 59 | 1014.7 |
| 20260510150652 | 71 | 233 | 0.0 | 2.6 | 0.00 | 0.00 | 0.00 | 60 | 1014.7 |
| 20260510150147 | 71 | 282 | 0.9 | 1.7 | 0.00 | 0.00 | 0.00 | 61 | 1014.7 |
| 20260510145644 | 70 | 199 | 0.0 | 1.7 | 0.00 | 0.00 | 0.00 | 62 | 1014.7 |
| 20260510145140 | 70 | 240 | 0.9 | 3.5 | 0.00 | 0.00 | 0.00 | 61 | 1014.8 |
| 20260510144636 | 70 | 272 | 3.5 | 3.5 | 0.00 | 0.00 | 0.00 | 60 | 1014.7 |
| 20260510144133 | 70 | 258 | 0.9 | 1.7 | 0.00 | 0.00 | 0.00 | 62 | 1014.7 |
| 20260510143628 | 68 | 233 | 0.9 | 2.6 | 0.00 | 0.00 | 0.00 | 66 | 1014.6 |
| 20260510143125 | 68 | 299 | 0.0 | 2.6 | 0.00 | 0.00 | 0.00 | 67 | 1014.7 |
| 20260510142621 | 68 | 304 | 0.0 | 1.7 | 0.00 | 0.00 | 0.00 | 66 | 1014.6 |
| 20260510142118 | 68 | 278 | 0.0 | 2.6 | 0.00 | 0.00 | 0.00 | 68 | 1014.6 |
| 20260510141615 | 68 | 219 | 0.9 | 2.6 | 0.00 | 0.00 | 0.00 | 69 | 1014.6 |
| 20260510141113 | 67 | 339 | 0.9 | 0.9 | 0.00 | 0.00 | 0.00 | 70 | 1014.7 |
| 20260510140609 | 66 | 264 | 0.0 | 1.7 | 0.00 | 0.00 | 0.00 | 69 | 1014.8 |
| 20260510140108 | 66 | 329 | 0.0 | 1.7 | 0.00 | 0.00 | 0.00 | 70 | 1014.7 |
| 20260510135604 | 65 | 281 | 1.7 | 1.7 | 0.00 | 0.00 | 0.00 | 71 | 1014.6 |
| 20260510135101 | 65 | 306 | 0.0 | 1.7 | 0.00 | 0.00 | 0.00 | 71 | 1014.7 |
| 20260510134558 | 66 | 231 | 0.0 | 1.7 | 0.00 | 0.00 | 0.00 | 71 | 1014.7 |
| 20260510134054 | 64 | 121 | 1.7 | 2.6 | 0.00 | 0.00 | 0.00 | 75 | 1014.6 |
| 20260510133551 | 65 | 288 | 1.7 | 2.6 | 0.00 | 0.00 | 0.00 | 73 | 1014.8 |
| 20260510133046 | 64 | 124 | 0.0 | 2.6 | 0.00 | 0.00 | 0.00 | 75 | 1014.6 |
| 20260510132543 | 62 | 275 | 0.0 | 2.6 | 0.00 | 0.00 | 0.00 | 78 | 1014.6 |
| 20260510132040 | 62 | 3 | 1.7 | 2.6 | 0.00 | 0.00 | 0.00 | 76 | 1014.7 |
| 20260510131538 | 62 | 54 | 0.0 | 1.7 | 0.00 | 0.00 | 0.00 | 80 | 1015.1 |
| 20260510131035 | 60 | 159 | 0.9 | 0.9 | 0.00 | 0.00 | 0.00 | 83 | 1014.9 |
| 20260510130531 | 59 | 313 | 0.0 | 2.6 | 0.00 | 0.00 | 0.00 | 87 | 1014.7 |
| 20260510130029 | 58 | 157 | 0.0 | 1.7 | 0.00 | 0.00 | 0.00 | 87 | 1014.9 |
| 20260510125525 | 58 | 282 | 0.0 | 1.7 | 0.00 | 0.00 | 0.00 | 88 | 1014.8 |
| 20260510125022 | 57 | 321 | 0.0 | 0.9 | 0.00 | 0.00 | 0.00 | 90 | 1014.8 |
| 20260510124518 | 56 | 129 | 0.0 | 0.9 | 0.00 | 0.00 | 0.00 | 91 | 1014.7 |
| 20260510124015 | 56 | 117 | 2.6 | 2.6 | 0.00 | 0.00 | 0.00 | 91 | 1014.7 |
| 20260510123510 | 56 | 70 | 0.9 | 1.7 | 0.00 | 0.00 | 0.00 | 91 | 1014.4 |
| 20260510123006 | 56 | 21 | 0.9 | 2.6 | 0.00 | 0.00 | 0.00 | 93 | 1014.5 |
| 20260510122502 | 55 | 303 | 1.7 | 1.7 | 0.00 | 0.00 | 0.00 | 94 | 1014.5 |
| 20260510121959 | 55 | 32 | 0.0 | 1.7 | 0.00 | 0.00 | 0.00 | 95 | 1014.5 |
| 20260510121456 | 55 | 126 | 0.9 | 1.7 | 0.00 | 0.00 | 0.00 | 95 | 1014.4 |
| 20260510120953 | 55 | 347 | 0.0 | 1.7 | 0.00 | 0.00 | 0.00 | 95 | 1014.8 |
| 20260510120450 | 55 | 139 | 1.7 | 2.6 | 0.00 | 0.00 | 0.00 | 96 | 1014.4 |
| 20260510115946 | 55 | 159 | 0.9 | 1.7 | 0.00 | 0.00 | 0.00 | 97 | 1014.3 |
| 20260510115444 | 54 | 133 | 0.0 | 1.7 | 0.00 | 0.00 | 0.00 | 97 | 1014.2 |
| 20260510114939 | 54 | 156 | 0.9 | 1.7 | 0.00 | 0.00 | 0.00 | 98 | 1014.1 |
| 20260510114436 | 54 | 78 | 1.7 | 2.6 | 0.00 | 0.00 | 0.00 | 98 | 1014.2 |
| 20260510113932 | 54 | 53 | 1.7 | 1.7 | 0.00 | 0.00 | 0.00 | 98 | 1014.2 |
| 20260510113427 | 53 | 127 | 1.7 | 2.6 | 0.00 | 0.00 | 0.00 | 98 | 1014.0 |
| 20260510112925 | 53 | 108 | 1.7 | 1.7 | 0.00 | 0.00 | 0.00 | 99 | 1014.1 |
| 20260510112422 | 53 | 127 | 0.0 | 1.7 | 0.00 | 0.00 | 0.00 | 99 | 1014.0 |
| 20260510111918 | 53 | 44 | 0.0 | 0.9 | 0.00 | 0.00 | 0.00 | 99 | 1014.0 |
| 20260510111414 | 53 | 78 | 1.7 | 2.6 | 0.00 | 0.00 | 0.00 | 99 | 1013.7 |
| 20260510110910 | 53 | 60 | 0.9 | 1.7 | 0.00 | 0.00 | 0.00 | 99 | 1013.8 |
| 20260510110407 | 53 | 76 | 0.0 | 0.9 | 0.00 | 0.00 | 0.00 | 99 | 1013.9 |
| 20260510105902 | 52 | 48 | 0.0 | 1.7 | 0.00 | 0.00 | 0.00 | 99 | 1013.6 |
| 20260510105357 | 52 | 243 | 0.0 | 1.7 | 0.00 | 0.00 | 0.00 | 99 | 1013.5 |
| 20260510104853 | 52 | 48 | 0.0 | 1.7 | 0.00 | 0.00 | 0.00 | 99 | 1013.4 |
| 20260510104350 | 52 | 101 | 0.0 | 1.7 | 0.00 | 0.00 | 0.00 | 99 | 1013.5 |
| 20260510103846 | 52 | 116 | 0.0 | 0.9 | 0.00 | 0.00 | 0.00 | 99 | 1013.4 |
| 20260510103344 | 52 | 122 | 0.0 | 2.6 | 0.00 | 0.00 | 0.00 | 99 | 1013.3 |
| 20260510102839 | 52 | 166 | 0.9 | 2.6 | 0.00 | 0.00 | 0.00 | 99 | 1013.3 |
| 20260510102335 | 52 | 69 | 0.0 | 1.7 | 0.00 | 0.00 | 0.00 | 99 | 1013.1 |
| 20260510101832 | 52 | 52 | 0.9 | 2.6 | 0.00 | 0.00 | 0.00 | 99 | 1013.2 |
| 20260510101331 | 52 | 66 | 0.9 | 2.6 | 0.00 | 0.00 | 0.00 | 99 | 1013.2 |
| 20260510100826 | 52 | 132 | 0.0 | 1.7 | 0.00 | 0.00 | 0.00 | 99 | 1013.2 |
| 20260510100324 | 52 | 37 | 0.9 | 1.7 | 0.00 | 0.00 | 0.00 | 99 | 1013.3 |
| 20260510095820 | 52 | 29 | 0.0 | 1.7 | 0.00 | 0.00 | 0.00 | 99 | 1013.5 |
| 20260510095315 | 52 | 32 | 0.0 | 0.9 | 0.00 | 0.00 | 0.00 | 99 | 1013.6 |
| 20260510094809 | 52 | 290 | 0.0 | 2.6 | 0.00 | 0.00 | 0.00 | 99 | 1013.2 |
| 20260510094304 | 52 | 354 | 0.0 | 1.7 | 0.00 | 0.00 | 0.00 | 99 | 1013.0 |
| 20260510093801 | 52 | 110 | 2.6 | 3.5 | 0.00 | 0.00 | 0.00 | 99 | 1013.1 |
| 20260510093257 | 52 | 113 | 1.7 | 1.7 | 0.00 | 0.00 | 0.00 | 99 | 1012.8 |
| 20260510092753 | 52 | 27 | 0.0 | 1.7 | 0.00 | 0.00 | 0.00 | 99 | 1012.8 |
| 20260510092249 | 52 | 333 | 0.0 | 1.7 | 0.00 | 0.00 | 0.00 | 99 | 1012.8 |
| 20260510091745 | 52 | 35 | 1.7 | 1.7 | 0.00 | 0.00 | 0.00 | 99 | 1012.8 |
| 20260510091243 | 52 | 23 | 0.0 | 1.7 | 0.00 | 0.00 | 0.00 | 99 | 1012.7 |
| 20260510090739 | 52 | 29 | 0.0 | 2.6 | 0.00 | 0.00 | 0.00 | 99 | 1012.8 |
| 20260510090236 | 51 | 16 | 1.7 | 1.7 | 0.00 | 0.00 | 0.00 | 99 | 1012.8 |
| 20260510085731 | 51 | 147 | 0.0 | 0.0 | 0.00 | 0.00 | 0.00 | 99 | 1012.4 |
| 20260510085226 | 51 | 166 | 0.0 | 0.9 | 0.00 | 0.00 | 0.00 | 99 | 1012.5 |
| 20260510084722 | 51 | 134 | 0.9 | 0.9 | 0.00 | 0.00 | 0.00 | 99 | 1012.5 |
| 20260510084219 | 51 | 55 | 0.0 | 0.9 | 0.00 | 0.00 | 0.00 | 99 | 1012.3 |
| 20260510083715 | 51 | 55 | 0.0 | 0.9 | 0.00 | 0.00 | 0.00 | 99 | 1012.5 |
| 20260510083212 | 51 | 113 | 0.0 | 0.0 | 0.00 | 0.00 | 0.00 | 99 | 1012.4 |
| 20260510082708 | 51 | 126 | 0.0 | 0.9 | 0.00 | 0.00 | 0.00 | 99 | 1012.4 |
| 20260510082159 | 50 | 113 | 0.0 | 0.9 | 0.00 | 0.00 | 0.00 | 99 | 1012.3 |
| 20260510081653 | 50 | 66 | 0.0 | 0.9 | 0.00 | 0.00 | 0.00 | 99 | 1012.4 |
| 20260510081149 | 50 | 154 | 0.9 | 0.9 | 0.00 | 0.00 | 0.00 | 99 | 1012.6 |
| 20260510080649 | 50 | 65 | 0.0 | 0.9 | 0.00 | 0.00 | 0.00 | 99 | 1012.5 |
| 20260510080146 | 50 | 113 | 0.0 | 0.0 | 0.00 | 0.00 | 0.00 | 99 | 1012.3 |
| 20260510075643 | 50 | 110 | 0.0 | 1.7 | 0.00 | 0.00 | 0.00 | 99 | 1012.3 |
| 20260510075140 | 50 | 41 | 1.7 | 1.7 | 0.00 | 0.00 | 0.00 | 99 | 1012.4 |
| 20260510074637 | 50 | 53 | 0.0 | 0.9 | 0.00 | 0.00 | 0.00 | 99 | 1012.1 |
| 20260510074133 | 50 | 119 | 0.0 | 1.7 | 0.00 | 0.00 | 0.00 | 99 | 1012.0 |
| 20260510073630 | 50 | 30 | 0.9 | 1.7 | 0.00 | 0.00 | 0.00 | 99 | 1012.1 |
| 20260510073126 | 49 | 52 | 0.0 | 1.7 | 0.00 | 0.00 | 0.00 | 99 | 1011.9 |
| 20260510072622 | 49 | 57 | 0.0 | 0.9 | 0.00 | 0.00 | 0.00 | 99 | 1012.0 |
| 20260510072119 | 49 | 62 | 0.0 | 0.9 | 0.00 | 0.00 | 0.00 | 98 | 1011.6 |
| 20260510071614 | 49 | 113 | 0.9 | 0.9 | 0.00 | 0.00 | 0.00 | 99 | 1011.7 |
| 20260510071113 | 49 | 113 | 0.0 | 0.9 | 0.00 | 0.00 | 0.00 | 98 | 1011.5 |
| 20260510070609 | 49 | 79 | 0.0 | 0.9 | 0.00 | 0.00 | 0.00 | 98 | 1011.5 |
| 20260510070107 | 50 | 87 | 0.0 | 0.9 | 0.00 | 0.00 | 0.00 | 98 | 1011.6 |
| 20260510065603 | 49 | 73 | 0.0 | 0.9 | 0.00 | 0.00 | 0.00 | 98 | 1011.9 |
| 20260510065059 | 49 | 105 | 0.9 | 0.9 | 0.00 | 0.00 | 0.00 | 98 | 1011.6 |
| 20260510064555 | 50 | 132 | 0.0 | 0.9 | 0.00 | 0.00 | 0.00 | 98 | 1011.9 |
| 20260510064052 | 50 | 79 | 0.0 | 0.9 | 0.00 | 0.00 | 0.00 | 98 | 1011.8 |
| 20260510063549 | 49 | 113 | 0.0 | 0.9 | 0.00 | 0.00 | 0.00 | 98 | 1011.7 |
| 20260510063046 | 50 | 126 | 0.0 | 0.9 | 0.00 | 0.00 | 0.00 | 98 | 1011.7 |
| 20260510062542 | 50 | 140 | 0.0 | 0.9 | 0.00 | 0.00 | 0.00 | 98 | 1011.9 |
| 20260510062037 | 50 | 122 | 0.0 | 1.7 | 0.00 | 0.00 | 0.00 | 98 | 1012.0 |
| 20260510061534 | 50 | 137 | 0.0 | 0.9 | 0.00 | 0.00 | 0.00 | 98 | 1012.0 |
| 20260510061031 | 50 | 136 | 0.0 | 0.9 | 0.00 | 0.00 | 0.00 | 98 | 1011.9 |
| 20260510060527 | 50 | 113 | 0.0 | 0.0 | 0.00 | 0.00 | 0.00 | 98 | 1011.9 |
| 20260510060023 | 50 | 123 | 0.0 | 1.7 | 0.00 | 0.00 | 0.00 | 98 | 1011.9 |
| 20260510055519 | 50 | 135 | 0.0 | 0.0 | 0.00 | 0.00 | 0.00 | 98 | 1012.1 |
| 20260510055018 | 50 | 117 | 0.0 | 1.7 | 0.00 | 0.00 | 0.00 | 98 | 1011.9 |
| 20260510054513 | 50 | 150 | 0.9 | 0.9 | 0.00 | 0.00 | 0.00 | 98 | 1012.2 |
| 20260510054009 | 50 | 113 | 0.0 | 0.9 | 0.00 | 0.00 | 0.00 | 98 | 1012.1 |
| 20260510053503 | 50 | 131 | 0.0 | 0.9 | 0.00 | 0.00 | 0.00 | 98 | 1012.1 |
| 20260510053001 | 51 | 113 | 0.0 | 0.9 | 0.02 | 0.00 | 0.00 | 98 | 1012.2 |
| 20260510052456 | 51 | 145 | 0.0 | 1.7 | 0.02 | 0.00 | 0.00 | 98 | 1012.2 |
| 20260510051953 | 51 | 113 | 0.0 | 0.0 | 0.00 | 0.00 | 0.00 | 98 | 1012.3 |
| 20260510051448 | 51 | 122 | 0.0 | 0.9 | 0.00 | 0.00 | 0.00 | 98 | 1012.2 |
| 20260510050945 | 51 | 124 | 0.0 | 0.9 | 0.00 | 0.00 | 0.00 | 98 | 1012.4 |
| 20260510050442 | 51 | 132 | 0.0 | 0.9 | 0.00 | 0.00 | 0.00 | 98 | 1012.5 |
| 20260510045939 | 51 | 118 | 0.0 | 0.9 | 0.00 | 0.00 | 0.00 | 98 | 1012.4 |
| 20260510045436 | 51 | 129 | 0.0 | 0.9 | 0.00 | 0.00 | 0.00 | 98 | 1012.5 |
| 20260510044933 | 51 | 141 | 0.0 | 0.9 | 0.00 | 0.00 | 0.00 | 98 | 1012.4 |
| 20260510044430 | 51 | 119 | 0.9 | 0.9 | 0.00 | 0.00 | 0.00 | 98 | 1012.5 |
| 20260510043927 | 51 | 119 | 0.0 | 0.0 | 0.00 | 0.00 | 0.00 | 98 | 1012.5 |
| 20260510043422 | 51 | 135 | 0.0 | 0.9 | 0.00 | 0.00 | 0.00 | 98 | 1012.5 |
| 20260510042921 | 51 | 124 | 0.0 | 0.9 | 0.00 | 0.00 | 0.00 | 98 | 1012.5 |
| 20260510042416 | 51 | 76 | 0.0 | 0.9 | 0.00 | 0.00 | 0.00 | 97 | 1012.5 |
| 20260510041912 | 52 | 126 | 0.9 | 1.7 | 0.00 | 0.00 | 0.00 | 98 | 1012.5 |
| 20260510041410 | 52 | 66 | 0.0 | 0.9 | 0.00 | 0.00 | 0.00 | 97 | 1012.6 |
| 20260510040908 | 51 | 89 | 0.0 | 0.9 | 0.00 | 0.00 | 0.00 | 97 | 1012.5 |
| 20260510040404 | 52 | 135 | 0.0 | 1.7 | 0.00 | 0.00 | 0.00 | 97 | 1012.7 |
| 20260510035859 | 52 | 136 | 0.0 | 1.7 | 0.00 | 0.02 | 0.02 | 97 | 1012.7 |
| 20260510035355 | 52 | 135 | 0.0 | 0.9 | 0.00 | 0.02 | 0.02 | 97 | 1012.7 |
| 20260510034851 | 52 | 108 | 0.9 | 0.9 | 0.00 | 0.02 | 0.02 | 97 | 1012.7 |
| 20260510034349 | 52 | 123 | 0.0 | 0.9 | 0.00 | 0.02 | 0.02 | 97 | 1012.5 |
| 20260510033845 | 52 | 95 | 0.0 | 0.9 | 0.00 | 0.02 | 0.02 | 97 | 1012.4 |
| 20260510033342 | 52 | 103 | 0.0 | 0.0 | 0.00 | 0.02 | 0.02 | 97 | 1012.4 |
| 20260510032839 | 52 | 154 | 0.0 | 1.7 | 0.00 | 0.02 | 0.02 | 97 | 1012.2 |
| 20260510032336 | 52 | 141 | 0.0 | 0.9 | 0.00 | 0.02 | 0.02 | 97 | 1012.2 |
| 20260510031831 | 52 | 147 | 0.0 | 0.0 | 0.00 | 0.02 | 0.02 | 97 | 1012.3 |
| 20260510031326 | 53 | 103 | 0.0 | 0.9 | 0.00 | 0.02 | 0.02 | 97 | 1012.1 |
| 20260510030821 | 53 | 150 | 0.0 | 1.7 | 0.00 | 0.02 | 0.02 | 97 | 1012.0 |
| 20260510030318 | 53 | 120 | 0.0 | 0.9 | 0.00 | 0.02 | 0.02 | 97 | 1012.0 |
| 20260510025815 | 53 | 89 | 0.0 | 0.9 | 0.00 | 0.02 | 0.02 | 97 | 1012.0 |
| 20260510025312 | 53 | 109 | 0.9 | 0.9 | 0.00 | 0.02 | 0.02 | 97 | 1012.0 |
| 20260510024809 | 53 | 135 | 0.0 | 1.7 | 0.00 | 0.02 | 0.02 | 97 | 1012.0 |
| 20260510024306 | 53 | 79 | 0.0 | 0.9 | 0.00 | 0.02 | 0.02 | 97 | 1012.1 |
| 20260510023802 | 53 | 135 | 0.0 | 0.9 | 0.00 | 0.02 | 0.02 | 96 | 1012.3 |
| 20260510023259 | 53 | 146 | 0.9 | 0.9 | 0.00 | 0.02 | 0.02 | 96 | 1012.1 |
| 20260510022755 | 53 | 103 | 0.0 | 0.9 | 0.00 | 0.02 | 0.02 | 96 | 1012.0 |
| 20260510022250 | 53 | 122 | 0.9 | 0.9 | 0.00 | 0.02 | 0.02 | 96 | 1012.0 |
| 20260510021749 | 53 | 113 | 0.0 | 0.9 | 0.00 | 0.02 | 0.02 | 96 | 1012.1 |
| 20260510021247 | 54 | 130 | 0.0 | 0.9 | 0.00 | 0.02 | 0.02 | 96 | 1012.2 |
| 20260510020743 | 53 | 114 | 0.9 | 1.7 | 0.00 | 0.02 | 0.02 | 96 | 1012.1 |
| 20260510020243 | 54 | 153 | 0.9 | 0.9 | 0.00 | 0.02 | 0.02 | 96 | 1012.0 |
| 20260510015739 | 54 | 134 | 0.9 | 0.9 | 0.00 | 0.02 | 0.02 | 96 | 1012.1 |
| 20260510015236 | 54 | 140 | 0.0 | 0.9 | 0.00 | 0.02 | 0.02 | 96 | 1012.0 |
| 20260510014730 | 54 | 105 | 0.9 | 0.9 | 0.00 | 0.02 | 0.02 | 96 | 1012.0 |
| 20260510014228 | 54 | 130 | 0.9 | 1.7 | 0.00 | 0.02 | 0.02 | 95 | 1011.8 |
| 20260510013724 | 54 | 122 | 0.9 | 0.9 | 0.00 | 0.02 | 0.02 | 95 | 1011.8 |
| 20260510013220 | 54 | 150 | 0.0 | 1.7 | 0.00 | 0.02 | 0.02 | 95 | 1011.9 |
| 20260510012719 | 54 | 103 | 0.0 | 0.9 | 0.00 | 0.02 | 0.02 | 95 | 1011.9 |
| 20260510012215 | 54 | 124 | 0.9 | 0.9 | 0.00 | 0.02 | 0.02 | 95 | 1012.0 |
| 20260510011709 | 54 | 135 | 0.9 | 1.7 | 0.00 | 0.02 | 0.02 | 95 | 1011.8 |
| 20260510011205 | 54 | 93 | 0.0 | 0.9 | 0.00 | 0.02 | 0.02 | 94 | 1011.9 |
| 20260510010702 | 55 | 116 | 0.0 | 0.9 | 0.00 | 0.02 | 0.02 | 94 | 1011.7 |
| 20260510010159 | 55 | 128 | 0.0 | 0.9 | 0.00 | 0.02 | 0.02 | 94 | 1011.5 |
| 20260510005655 | 55 | 133 | 0.0 | 1.7 | 0.00 | 0.02 | 0.02 | 94 | 1011.6 |
| 20260510005152 | 55 | 130 | 0.0 | 0.9 | 0.00 | 0.02 | 0.02 | 93 | 1011.8 |
| 20260510004650 | 55 | 89 | 0.0 | 0.9 | 0.00 | 0.02 | 0.02 | 93 | 1011.7 |
| 20260510004148 | 55 | 82 | 0.0 | 0.9 | 0.00 | 0.02 | 0.02 | 93 | 1011.6 |
| 20260510003645 | 55 | 87 | 0.0 | 0.0 | 0.00 | 0.02 | 0.02 | 93 | 1011.9 |
| 20260510003140 | 55 | 81 | 0.0 | 0.9 | 0.00 | 0.02 | 0.02 | 92 | 1011.8 |
| 20260510002640 | 56 | 120 | 0.0 | 1.7 | 0.00 | 0.02 | 0.02 | 92 | 1011.7 |
| 20260510002138 | 56 | 124 | 0.9 | 1.7 | 0.00 | 0.02 | 0.02 | 91 | 1011.5 |
| 20260510001634 | 56 | 129 | 0.0 | 0.9 | 0.00 | 0.02 | 0.02 | 90 | 1011.6 |
| 20260510001133 | 57 | 139 | 0.0 | 0.9 | 0.00 | 0.02 | 0.02 | 90 | 1011.5 |
| 20260510000633 | 57 | 126 | 0.0 | 1.7 | 0.00 | 0.02 | 0.02 | 90 | 1011.7 |
| 20260510000131 | 57 | 110 | 0.0 | 0.0 | 0.00 | 0.02 | 0.02 | 89 | 1011.7 |
| 20260509235627 | 57 | 143 | 0.9 | 0.9 | 0.00 | 0.02 | 0.02 | 89 | 1011.5 |
| 20260509235124 | 58 | 132 | 0.0 | 1.7 | 0.00 | 0.02 | 0.02 | 88 | 1011.8 |
| 20260509234620 | 58 | 113 | 0.0 | 0.9 | 0.00 | 0.02 | 0.02 | 87 | 1011.7 |
| 20260509234118 | 58 | 129 | 0.0 | 0.0 | 0.00 | 0.02 | 0.02 | 87 | 1011.7 |
| 20260509233615 | 58 | 129 | 0.0 | 0.9 | 0.00 | 0.02 | 0.02 | 86 | 1011.5 |
| 20260509233112 | 59 | 130 | 0.0 | 0.9 | 0.00 | 0.02 | 0.02 | 85 | 1011.3 |
| 20260509232608 | 59 | 69 | 0.0 | 0.9 | 0.00 | 0.02 | 0.02 | 85 | 1011.5 |
| 20260509232106 | 59 | 245 | 0.0 | 0.9 | 0.00 | 0.02 | 0.02 | 85 | 1011.3 |
| 20260509231602 | 59 | 50 | 0.0 | 0.9 | 0.00 | 0.02 | 0.02 | 85 | 1011.1 |
| 20260509231100 | 59 | 135 | 0.0 | 1.7 | 0.00 | 0.02 | 0.02 | 85 | 1011.3 |
| 20260509230556 | 59 | 113 | 0.0 | 2.6 | 0.00 | 0.02 | 0.02 | 85 | 1011.0 |
| 20260509230054 | 59 | 107 | 0.9 | 0.9 | 0.00 | 0.02 | 0.02 | 87 | 1011.2 |
| 20260509225549 | 59 | 140 | 0.0 | 1.7 | 0.00 | 0.02 | 0.02 | 86 | 1011.4 |
| 20260509225044 | 59 | 150 | 1.7 | 1.7 | 0.00 | 0.02 | 0.02 | 86 | 1011.5 |
| 20260509224540 | 59 | 155 | 0.0 | 1.7 | 0.00 | 0.02 | 0.02 | 85 | 1011.5 |
| 20260509224037 | 59 | 115 | 0.9 | 2.6 | 0.00 | 0.02 | 0.02 | 86 | 1011.5 |
| 20260509223534 | 59 | 130 | 0.9 | 0.9 | 0.00 | 0.02 | 0.02 | 86 | 1011.4 |
| 20260509223032 | 59 | 100 | 1.7 | 1.7 | 0.00 | 0.02 | 0.02 | 86 | 1011.5 |
| 20260509222528 | 59 | 150 | 0.0 | 1.7 | 0.00 | 0.02 | 0.02 | 86 | 1011.4 |
| 20260509222024 | 59 | 145 | 0.0 | 0.9 | 0.00 | 0.02 | 0.02 | 86 | 1011.4 |
| 20260509221520 | 59 | 66 | 0.0 | 1.7 | 0.00 | 0.02 | 0.02 | 86 | 1011.5 |
| 20260509221016 | 59 | 113 | 0.0 | 1.7 | 0.00 | 0.02 | 0.02 | 86 | 1011.3 |
| 20260509220512 | 59 | 135 | 0.0 | 1.7 | 0.00 | 0.02 | 0.02 | 86 | 1011.3 |
| 20260509220009 | 59 | 120 | 0.9 | 1.7 | 0.00 | 0.02 | 0.02 | 84 | 1011.6 |
| 20260509215504 | 59 | 89 | 0.9 | 1.7 | 0.02 | 0.02 | 0.02 | 82 | 1011.7 |
| 20260509215001 | 60 | 73 | 1.7 | 2.6 | 0.05 | 0.02 | 0.02 | 79 | 1011.8 |
| 20260509214458 | 60 | 39 | 1.7 | 2.6 | 0.02 | 0.02 | 0.02 | 76 | 1011.8 |
| 20260509213955 | 61 | 164 | 0.0 | 3.5 | 0.00 | 0.01 | 0.01 | 75 | 1011.7 |
| 20260509213451 | 61 | 63 | 2.6 | 2.6 | 0.02 | 0.01 | 0.01 | 73 | 1011.4 |
| 20260509212948 | 62 | 109 | 0.9 | 2.6 | 0.02 | 0.01 | 0.01 | 72 | 1011.6 |
| 20260509212446 | 62 | 45 | 0.9 | 2.6 | 0.00 | 0.01 | 0.01 | 70 | 1011.7 |
| 20260509211942 | 62 | 96 | 0.0 | 1.7 | 0.00 | 0.01 | 0.01 | 68 | 1011.8 |
| 20260509211437 | 62 | 66 | 0.9 | 2.6 | 0.00 | 0.01 | 0.01 | 68 | 1012.1 |
| 20260509210934 | 63 | 15 | 1.7 | 1.7 | 0.00 | 0.01 | 0.01 | 67 | 1011.8 |
| 20260509210431 | 63 | 14 | 0.0 | 2.6 | 0.00 | 0.01 | 0.01 | 66 | 1011.8 |
| 20260509205926 | 64 | 338 | 0.9 | 2.6 | 0.00 | 0.01 | 0.01 | 65 | 1011.5 |
| 20260509205421 | 63 | 353 | 0.0 | 4.3 | 0.00 | 0.01 | 0.01 | 67 | 1011.4 |
| 20260509204917 | 63 | 352 | 0.9 | 3.5 | 0.00 | 0.01 | 0.01 | 65 | 1011.7 |